Time;durP1;ratioP1;P1;durP2;ratioP2;P2;SDS_P1;SDS_P2;PMS_P1;PMS_P2;Temp;Humidity;BMP_temperature;BMP_pressure;BME280_temperature;BME280_humidity;BME280_pressure;Samples;Min_cycle;Max_cycle;Signal;HPM_P1;HPM_P2
2021/06/02 00:01:56;;;;;;;12.73;6.53;;;;;;;13.12;68.47;100502.56;5052686;28;20156;-71
2021/06/02 00:04:26;;;;;;;10.63;5.67;;;;;;;12.92;69.33;100505.69;5053174;28;20047;-70
2021/06/02 00:06:57;;;;;;;10.02;6.13;;;;;;;12.93;69.53;100510.06;5052456;28;20094;-71
2021/06/02 00:09:26;;;;;;;12.60;5.75;;;;;;;12.99;69.14;100507.00;5052757;28;20033;-71
2021/06/02 00:11:56;;;;;;;10.32;5.93;;;;;;;13.03;69.58;100510.34;5052503;28;20094;-71
2021/06/02 00:14:26;;;;;;;11.82;6.10;;;;;;;12.80;70.31;100515.38;5052578;28;20045;-71
2021/06/02 00:16:56;;;;;;;12.93;6.00;;;;;;;12.74;70.29;100515.81;5052557;28;20048;-72
2021/06/02 00:19:25;;;;;;;10.57;5.68;;;;;;;12.76;70.25;100507.66;5053167;28;20135;-71
2021/06/02 00:21:54;;;;;;;10.35;5.72;;;;;;;12.83;70.25;100512.50;5056650;28;20056;-72
2021/06/02 00:24:24;;;;;;;9.80;5.75;;;;;;;12.83;69.81;100519.66;5056977;28;20477;-73
2021/06/02 00:26:56;;;;;;;9.93;5.43;;;;;;;12.71;70.34;100509.78;5056504;28;20119;-71
2021/06/02 00:29:26;;;;;;;10.52;5.45;;;;;;;12.82;70.05;100524.16;5056690;28;20033;-72
2021/06/02 00:31:55;;;;;;;10.50;5.20;;;;;;;12.80;70.27;100517.19;5056958;28;20041;-73
2021/06/02 00:34:23;;;;;;;8.95;5.03;;;;;;;12.75;70.63;100514.84;5056926;28;20166;-74
2021/06/02 00:36:52;;;;;;;14.10;5.90;;;;;;;12.69;71.16;100520.56;5056454;28;20049;-71
2021/06/02 00:39:20;;;;;;;11.30;6.07;;;;;;;12.73;70.90;100518.56;5056713;28;20091;-71
2021/06/02 00:41:50;;;;;;;11.93;5.72;;;;;;;12.61;71.63;100518.38;5056252;28;20128;-72
2021/06/02 00:44:19;;;;;;;9.75;5.15;;;;;;;12.66;71.45;100514.56;5056756;28;20048;-72
2021/06/02 00:46:48;;;;;;;12.05;5.18;;;;;;;12.60;71.73;100508.66;5055213;28;20053;-71
2021/06/02 00:49:23;;;;;;;10.32;5.53;;;;;;;12.75;71.01;100512.16;5056453;28;20049;-71
2021/06/02 00:51:56;;;;;;;8.25;5.47;;;;;;;12.66;71.49;100507.41;5056329;28;20075;-70
2021/06/02 00:54:24;;;;;;;7.80;5.50;;;;;;;12.41;73.27;100513.47;5056425;28;20106;-70
2021/06/02 00:56:55;;;;;;;9.90;5.50;;;;;;;12.53;72.88;100515.34;5055972;28;20513;-71
2021/06/02 00:59:30;;;;;;;9.57;5.28;;;;;;;12.51;73.03;100514.59;5056428;28;20051;-71
2021/06/02 01:01:59;;;;;;;10.85;5.32;;;;;;;12.68;72.57;100520.69;5055896;28;20102;-71
2021/06/02 01:04:28;;;;;;;12.45;5.82;;;;;;;12.58;72.62;100515.06;5056213;28;20456;-70
2021/06/02 01:06:59;;;;;;;8.77;5.50;;;;;;;12.67;72.60;100524.31;5056231;28;20041;-70
2021/06/02 01:09:30;;;;;;;7.78;5.07;;;;;;;12.47;73.29;100520.25;5056282;28;20045;-71
2021/06/02 01:12:00;;;;;;;10.90;5.65;;;;;;;12.41;73.66;100523.28;5055801;28;20398;-69
2021/06/02 01:14:30;;;;;;;12.45;5.95;;;;;;;12.44;73.62;100528.44;5055800;28;20418;-71
2021/06/02 01:17:01;;;;;;;8.20;5.32;;;;;;;12.61;73.28;100531.78;5055826;28;20045;-70
2021/06/02 01:19:30;;;;;;;8.27;5.63;;;;;;;12.60;73.50;100532.72;5055942;28;20041;-70
2021/06/02 01:22:00;;;;;;;9.93;5.65;;;;;;;12.53;73.65;100533.22;5055562;28;20062;-72
2021/06/02 01:24:30;;;;;;;8.80;5.25;;;;;;;12.53;73.78;100531.41;5056031;28;20045;-72
2021/06/02 01:27:02;;;;;;;10.48;5.22;;;;;;;12.59;73.57;100528.34;5055644;28;20091;-77
2021/06/02 01:29:34;;;;;;;7.97;5.13;;;;;;;12.47;74.04;100522.91;5055511;28;20124;-77
2021/06/02 01:32:41;;;;;;;12.10;5.80;;;;;;;12.52;74.08;100528.81;5054070;28;20037;-77
2021/06/02 01:35:45;;;;;;;8.70;5.25;;;;;;;12.60;73.81;100523.84;5014457;28;20096;-75
2021/06/02 01:38:50;;;;;;;8.80;4.93;;;;;;;12.48;74.35;100532.66;5055630;28;20045;-75
2021/06/02 01:41:24;;;;;;;8.27;4.95;;;;;;;12.47;74.52;100537.16;5055499;28;20045;-74
2021/06/02 01:44:40;;;;;;;10.35;5.10;;;;;;;12.36;74.96;100531.63;5055166;28;20545;-75
2021/06/02 01:47:42;;;;;;;7.97;4.93;;;;;;;12.21;75.87;100533.44;5055459;28;20391;-74
2021/06/02 01:50:53;;;;;;;7.88;4.93;;;;;;;12.38;75.11;100535.06;5055165;28;20072;-75
2021/06/02 01:53:47;;;;;;;10.45;5.32;;;;;;;12.40;75.17;100541.16;5055411;28;20454;-74
2021/06/02 01:57:00;;;;;;;9.48;4.57;;;;;;;12.43;74.75;100537.44;5055183;28;20186;-74
2021/06/02 02:00:02;;;;;;;10.40;4.63;;;;;;;12.35;74.83;100529.88;5054988;28;20033;-75
2021/06/02 02:02:49;;;;;;;9.10;4.72;;;;;;;12.29;75.34;100535.63;5052975;28;20057;-74
2021/06/02 02:05:38;;;;;;;8.18;5.10;;;;;;;12.24;75.69;100533.22;5054975;28;20052;-74
2021/06/02 02:08:33;;;;;;;7.90;5.00;;;;;;;12.09;76.40;100538.69;5055084;28;20037;-74
2021/06/02 02:11:09;;;;;;;8.23;5.03;;;;;;;12.11;76.30;100536.78;5054576;28;20095;-75
2021/06/02 02:13:56;;;;;;;7.97;4.50;;;;;;;12.20;75.87;100530.88;5054899;28;20052;-77
2021/06/02 02:16:37;;;;;;;9.73;4.88;;;;;;;12.19;75.99;100539.84;5054707;28;20417;-74
2021/06/02 02:19:21;;;;;;;8.57;4.88;;;;;;;12.11;76.70;100539.47;5054646;28;20139;-75
2021/06/02 02:21:55;;;;;;;8.88;4.53;;;;;;;12.11;76.85;100537.63;5054543;28;20049;-71
2021/06/02 02:24:30;;;;;;;10.43;5.15;;;;;;;12.08;77.32;100528.97;5054958;28;20094;-70
2021/06/02 02:27:16;;;;;;;6.95;5.07;;;;;;;12.19;76.43;100534.50;5054314;28;20048;-70
2021/06/02 02:29:56;;;;;;;10.35;5.20;;;;;;;12.07;76.82;100528.09;5054212;28;20480;-71
2021/06/02 02:32:47;;;;;;;9.45;4.80;;;;;;;12.11;76.78;100531.44;5054724;28;20110;-70
2021/06/02 02:35:30;;;;;;;8.48;5.38;;;;;;;12.11;77.06;100534.09;5053345;28;20052;-74
2021/06/02 02:38:07;;;;;;;9.45;4.93;;;;;;;12.18;76.78;100533.63;5054030;28;20037;-75
2021/06/02 02:40:56;;;;;;;9.80;5.38;;;;;;;12.04;78.01;100531.81;5053625;28;20063;-75
2021/06/02 02:43:39;;;;;;;12.20;5.45;;;;;;;12.00;77.90;100538.31;5054054;28;20040;-75
2021/06/02 02:46:15;;;;;;;10.52;5.38;;;;;;;11.95;78.52;100531.50;5054308;28;20060;-75
2021/06/02 02:48:51;;;;;;;9.57;5.07;;;;;;;11.98;78.14;100536.69;5053782;28;20048;-75
2021/06/02 02:51:27;;;;;;;11.25;5.95;;;;;;;12.01;78.07;100536.50;5054250;28;20048;-72
2021/06/02 02:54:04;;;;;;;10.80;5.10;;;;;;;11.93;78.10;100534.28;5053857;28;20048;-73
2021/06/02 02:56:48;;;;;;;8.77;4.88;;;;;;;11.80;78.46;100536.00;5054096;28;20045;-73
2021/06/02 02:59:24;;;;;;;7.88;4.75;;;;;;;12.03;77.75;100545.28;5054107;28;20041;-73
2021/06/02 03:02:01;;;;;;;9.00;5.15;;;;;;;12.06;77.92;100536.19;5053777;28;20131;-73
2021/06/02 03:04:36;;;;;;;9.48;5.53;;;;;;;11.92;78.35;100553.94;5053862;28;20045;-74
2021/06/02 03:07:06;;;;;;;10.07;5.40;;;;;;;11.91;77.91;100548.69;5053381;28;20056;-73
2021/06/02 03:09:40;;;;;;;9.40;4.90;;;;;;;11.92;77.37;100556.63;5052336;28;20143;-73
2021/06/02 03:12:17;;;;;;;;;;;;;;;12.00;77.76;100553.50;5053950;28;20056;-73
2021/06/02 03:14:54;;;;;;;9.95;5.30;;;;;;;11.93;77.82;100562.81;5053446;28;20344;-74
2021/06/02 03:17:32;;;;;;;9.68;5.20;;;;;;;11.99;77.24;100568.66;5053617;28;20040;-74
2021/06/02 03:20:07;;;;;;;10.38;5.35;;;;;;;12.01;76.96;100564.09;5053206;28;20048;-73
2021/06/02 03:22:57;;;;;;;9.35;4.90;;;;;;;12.16;76.62;100572.09;5053505;28;20045;-72
2021/06/02 03:25:30;;;;;;;9.32;5.07;;;;;;;12.12;76.73;100575.94;5051566;28;20083;-72
2021/06/02 03:28:12;;;;;;;7.50;5.22;;;;;;;11.92;77.47;100570.00;5053391;28;20036;-72
2021/06/02 03:30:44;;;;;;;9.65;4.72;;;;;;;12.01;76.98;100580.13;5053242;28;20045;-71
2021/06/02 03:33:30;;;;;;;10.02;5.50;;;;;;;11.96;77.38;100582.19;5053411;28;20048;-71
2021/06/02 03:36:11;;;;;;;7.60;5.40;;;;;;;11.77;78.90;100570.88;5053048;28;20131;-70
2021/06/02 03:38:52;;;;;;;12.68;5.35;;;;;;;11.92;77.82;100575.34;5053182;28;20052;-72
2021/06/02 03:41:29;;;;;;;11.13;5.20;;;;;;;11.79;77.94;100574.34;5053408;28;20107;-71
2021/06/02 03:44:13;;;;;;;12.45;6.13;;;;;;;11.95;77.71;100584.97;5053147;28;20057;-73
2021/06/02 03:46:53;;;;;;;8.98;5.35;;;;;;;11.99;77.01;100582.03;5053085;28;20041;-73
2021/06/02 03:49:33;;;;;;;11.27;5.85;;;;;;;11.94;78.24;100586.78;5053492;28;20098;-71
2021/06/02 03:52:05;;;;;;;11.20;5.50;;;;;;;11.92;78.66;100591.38;5052638;28;20102;-71
2021/06/02 03:54:37;;;;;;;10.25;5.30;;;;;;;11.93;77.89;100587.75;5052565;28;20041;-71
2021/06/02 03:57:23;;;;;;;7.40;4.78;;;;;;;12.12;75.96;100600.84;5052686;28;20119;-70
2021/06/02 04:00:10;;;;;;;9.98;5.03;;;;;;;12.32;74.84;100588.94;5052151;28;20053;-72
2021/06/02 04:02:48;;;;;;;9.70;4.70;;;;;;;12.59;73.36;100592.56;5052831;28;20095;-71
2021/06/02 04:05:31;;;;;;;7.50;4.53;;;;;;;12.68;72.81;100598.28;5053166;28;20393;-71
2021/06/02 04:08:14;;;;;;;8.20;4.60;;;;;;;12.83;72.51;100594.63;5052477;28;20170;-70
2021/06/02 04:10:47;;;;;;;;;;;;;;;12.95;72.02;100593.84;5053273;28;20045;-71
2021/06/02 04:13:31;;;;;;;12.65;4.85;;;;;;;13.16;71.56;100602.31;5053294;28;20004;-71
2021/06/02 04:16:08;;;;;;;10.10;5.55;;;;;;;13.29;70.98;100607.75;5053225;28;20049;-71
2021/06/02 04:18:38;;;;;;;7.50;4.85;;;;;;;13.35;70.80;100607.34;5053100;28;20052;-71
2021/06/02 04:21:07;;;;;;;9.23;5.53;;;;;;;13.43;69.85;100603.22;5052539;28;20045;-71
2021/06/02 04:23:38;;;;;;;9.20;5.25;;;;;;;13.50;69.29;100611.69;5052819;28;20064;-71
2021/06/02 04:26:06;;;;;;;8.20;5.05;;;;;;;13.43;69.88;100610.38;5052249;28;20041;-70
2021/06/02 04:28:35;;;;;;;11.50;5.47;;;;;;;13.51;69.35;100613.44;5052492;28;20401;-74
2021/06/02 04:31:06;;;;;;;9.15;5.18;;;;;;;13.34;69.57;100605.63;5052269;28;20037;-72
2021/06/02 04:33:35;;;;;;;9.60;5.28;;;;;;;13.31;69.92;100621.91;5052797;28;20490;-71
2021/06/02 04:36:05;;;;;;;10.55;5.05;;;;;;;13.27;70.59;100620.38;5052162;28;20123;-72
2021/06/02 04:38:37;;;;;;;10.57;5.82;;;;;;;13.09;71.48;100623.25;5052539;28;20045;-74
2021/06/02 04:41:07;;;;;;;12.02;5.10;;;;;;;13.23;69.96;100634.97;5052034;28;20052;-73
2021/06/02 04:43:38;;;;;;;9.75;5.35;;;;;;;13.17;69.54;100626.31;5052220;28;20055;-71
2021/06/02 04:46:08;;;;;;;11.07;5.45;;;;;;;13.16;70.24;100629.94;5051988;28;20056;-71
2021/06/02 04:48:36;;;;;;;8.38;4.95;;;;;;;13.06;70.67;100633.31;5052492;28;20102;-72
2021/06/02 04:52:00;;;;;;;9.40;5.10;;;;;;;13.21;70.12;100639.53;5051768;28;20044;-71
2021/06/02 04:54:58;;;;;;;8.60;4.45;;;;;;;13.25;68.85;100641.06;5052509;28;20049;-75
2021/06/02 04:57:47;;;;;;;8.80;4.45;;;;;;;13.50;68.14;100643.84;5052270;28;20037;-75
2021/06/02 05:00:46;;;;;;;11.80;4.70;;;;;;;13.57;67.57;100644.31;5052059;28;20489;-73
2021/06/02 05:03:50;;;;;;;9.65;5.43;;;;;;;13.69;65.99;100641.66;5031346;28;20099;-74
2021/06/02 05:06:54;;;;;;;10.02;4.85;;;;;;;13.68;67.29;100637.25;5054078;28;20048;-75
2021/06/02 05:10:01;;;;;;;12.63;4.82;;;;;;;13.87;66.33;100647.59;5056147;28;20045;-74
2021/06/02 05:13:00;;;;;;;8.52;5.22;;;;;;;13.84;67.02;100642.47;5055558;28;20049;-73
2021/06/02 05:16:02;;;;;;;8.40;5.00;;;;;;;14.01;66.48;100649.38;5055707;28;20090;-73
2021/06/02 05:18:59;;;;;;;11.50;4.90;;;;;;;14.03;65.96;100648.28;5038869;28;20062;-71
2021/06/02 05:22:07;;;;;;;8.55;4.70;;;;;;;14.07;65.58;100648.94;5055809;28;20451;-71
2021/06/02 05:25:09;;;;;;;8.07;4.38;;;;;;;14.24;64.14;100654.00;5039980;28;20095;-69
2021/06/02 05:27:59;;;;;;;8.05;4.28;;;;;;;14.39;63.62;100661.97;5055802;28;20383;-70
2021/06/02 05:30:44;;;;;;;9.82;4.50;;;;;;;14.65;62.40;100658.34;5055515;28;20075;-69
2021/06/02 05:33:47;;;;;;;8.98;4.22;;;;;;;14.94;60.13;100660.78;5055310;28;20056;-70
2021/06/02 05:36:37;;;;;;;7.20;4.40;;;;;;;14.95;59.64;100659.78;5055271;28;20086;-72
2021/06/02 05:39:11;;;;;;;8.73;4.40;;;;;;;14.94;59.79;100650.03;5055150;28;20049;-77
2021/06/02 05:42:11;;;;;;;10.23;4.07;;;;;;;15.07;59.89;100653.56;5060453;28;20081;-74
2021/06/02 05:45:17;;;;;;;8.07;4.13;;;;;;;15.26;58.60;100651.25;5059654;28;20409;-75
2021/06/02 05:48:12;;;;;;;7.55;4.22;;;;;;;15.40;58.35;100648.38;5055151;28;20478;-75
2021/06/02 05:51:13;;;;;;;9.45;3.95;;;;;;;15.52;57.82;100645.75;5055182;28;20505;-72
2021/06/02 05:54:15;;;;;;;8.10;4.43;;;;;;;15.73;58.00;100639.69;5055011;28;20049;-74
2021/06/02 05:57:22;;;;;;;12.95;5.25;;;;;;;15.97;57.09;100647.72;5055472;28;20052;-69
2021/06/02 06:00:08;;;;;;;10.75;4.70;;;;;;;16.24;56.07;100660.03;5054924;28;20048;-71
2021/06/02 06:03:10;;;;;;;12.73;4.28;;;;;;;16.39;55.30;100661.50;5055192;28;20070;-75
2021/06/02 06:06:03;;;;;;;8.48;4.80;;;;;;;16.29;55.22;100660.50;5055026;28;20397;-73
2021/06/02 06:09:05;;;;;;;8.57;4.50;;;;;;;16.60;54.56;100665.25;5052500;28;20132;-75
2021/06/02 06:11:59;;;;;;;10.07;4.57;;;;;;;16.55;53.57;100664.72;5054576;28;20373;-76
2021/06/02 06:15:08;;;;;;;9.02;4.63;;;;;;;16.62;53.26;100661.56;5054701;28;20049;-73
2021/06/02 06:18:21;;;;;;;11.60;4.60;;;;;;;16.37;54.95;100660.78;5053056;28;20072;-72
2021/06/02 06:21:25;;;;;;;9.00;4.50;;;;;;;16.26;54.01;100663.44;5025859;28;20083;-74
2021/06/02 06:23:55;;;;;;;8.50;4.45;;;;;;;16.51;53.72;100663.25;5054603;28;20049;-75
2021/06/02 06:26:29;;;;;;;8.02;4.13;;;;;;;16.56;53.13;100671.81;5054482;28;20045;-75
2021/06/02 06:29:07;;;;;;;8.27;4.03;;;;;;;16.64;52.78;100667.69;5054870;28;20044;-72
2021/06/02 06:31:41;;;;;;;7.35;4.13;;;;;;;16.83;53.15;100662.56;5054146;28;20037;-75
2021/06/02 06:34:13;;;;;;;8.68;4.00;;;;;;;16.87;51.40;100672.13;5054612;28;20532;-72
2021/06/02 06:36:44;;;;;;;7.68;3.92;;;;;;;16.83;50.08;100670.66;5054066;28;20132;-73
2021/06/02 06:39:23;;;;;;;10.77;4.32;;;;;;;16.82;51.33;100672.50;5054517;28;20045;-70
2021/06/02 06:41:53;;;;;;;7.88;4.30;;;;;;;17.02;51.59;100667.34;5054296;28;20045;-75
2021/06/02 06:44:23;;;;;;;11.02;4.30;;;;;;;16.99;50.33;100668.47;5054272;28;20114;-75
2021/06/02 06:46:55;;;;;;;8.90;4.45;;;;;;;17.19;48.18;100672.25;5054365;28;20087;-72
2021/06/02 06:49:26;;;;;;;8.00;3.73;;;;;;;17.17;48.35;100666.94;5054493;28;20094;-73
2021/06/02 06:51:56;;;;;;;9.43;4.35;;;;;;;17.27;48.94;100669.75;5053769;28;20297;-72
2021/06/02 06:54:25;;;;;;;9.23;3.90;;;;;;;17.35;48.12;100671.84;5054077;28;20043;-74
2021/06/02 06:56:55;;;;;;;8.38;3.58;;;;;;;17.40;47.40;100673.19;5052973;28;20048;-74
2021/06/02 06:59:24;;;;;;;8.20;3.90;;;;;;;17.54;47.10;100674.72;5053019;28;20057;-77
2021/06/02 07:01:53;;;;;;;10.38;3.95;;;;;;;17.64;47.45;100678.38;5053712;28;20464;-74
2021/06/02 07:04:22;;;;;;;9.70;3.95;;;;;;;17.56;47.72;100671.91;5053937;28;20053;-79
2021/06/02 07:06:53;;;;;;;9.38;3.75;;;;;;;17.73;47.33;100668.69;5053478;28;20406;-76
2021/06/02 07:09:21;;;;;;;7.05;3.60;;;;;;;18.10;48.19;100668.31;5054798;28;20049;-76
2021/06/02 07:11:50;;;;;;;10.70;4.03;;;;;;;18.09;46.98;100669.28;5056824;28;20060;-78
2021/06/02 07:14:24;;;;;;;10.73;4.00;;;;;;;17.96;47.73;100664.09;5052817;28;20048;-76
2021/06/02 07:16:54;;;;;;;9.35;4.07;;;;;;;17.74;48.13;100673.09;5054088;28;20116;-76
2021/06/02 07:19:23;;;;;;;8.90;3.83;;;;;;;18.07;47.84;100661.34;5053805;28;20041;-77
2021/06/02 07:21:52;;;;;;;12.48;3.90;;;;;;;18.27;47.20;100668.59;5053969;28;20056;-77
2021/06/02 07:24:21;;;;;;;7.05;3.65;;;;;;;18.02;45.60;100675.19;5058186;28;20045;-74
2021/06/02 07:26:49;;;;;;;8.13;4.13;;;;;;;18.24;46.17;100674.25;5060093;28;20053;-74
2021/06/02 07:29:22;;;;;;;9.60;4.15;;;;;;;18.41;45.16;100680.88;5054487;28;20045;-75
2021/06/02 07:31:51;;;;;;;6.95;3.35;;;;;;;18.60;44.18;100685.56;5053349;28;20045;-74
2021/06/02 07:34:21;;;;;;;8.27;3.33;;;;;;;18.64;43.93;100680.75;5054362;28;20072;-76
2021/06/02 07:36:50;;;;;;;5.65;3.00;;;;;;;18.28;44.24;100674.84;5053332;28;20044;-74
2021/06/02 07:39:19;;;;;;;5.80;2.75;;;;;;;18.29;43.01;100682.81;5053516;28;20044;-74
2021/06/02 07:41:48;;;;;;;4.47;2.60;;;;;;;18.11;43.61;100689.75;5052954;28;20470;-77
2021/06/02 07:44:16;;;;;;;6.60;2.97;;;;;;;17.99;43.14;100685.41;5053020;28;20075;-75
2021/06/02 07:46:44;;;;;;;6.25;2.78;;;;;;;18.03;42.56;100686.84;5053266;28;20044;-75
2021/06/02 07:49:15;;;;;;;5.80;3.20;;;;;;;18.42;42.31;100692.53;5053345;28;20064;-75
2021/06/02 07:51:44;;;;;;;8.60;3.42;;;;;;;18.78;41.62;100694.78;5052881;28;20044;-77
2021/06/02 07:54:12;;;;;;;4.38;2.67;;;;;;;18.79;40.85;100695.66;5053179;28;20069;-76
2021/06/02 07:56:40;;;;;;;7.10;3.08;;;;;;;18.82;41.13;100693.56;5052996;28;20056;-76
2021/06/02 07:59:08;;;;;;;6.40;3.03;;;;;;;19.00;40.87;100695.59;5052795;28;20049;-74
2021/06/02 08:01:36;;;;;;;6.68;2.88;;;;;;;18.93;39.94;100699.84;5051862;28;20449;-73
2021/06/02 08:04:04;;;;;;;6.05;2.92;;;;;;;19.02;39.60;100691.78;5053003;28;20044;-73
2021/06/02 08:06:32;;;;;;;5.75;2.70;;;;;;;19.16;39.97;100693.25;5052420;28;20045;-71
2021/06/02 08:09:01;;;;;;;7.78;3.08;;;;;;;19.04;39.99;100688.94;5052636;28;20041;-72
2021/06/02 08:11:30;;;;;;;9.30;3.05;;;;;;;19.23;39.23;100689.03;5052438;28;20075;-70
2021/06/02 08:13:58;;;;;;;6.93;3.28;;;;;;;19.56;39.01;100689.69;5052577;28;20124;-74
2021/06/02 08:16:26;;;;;;;5.32;2.50;;;;;;;19.63;38.15;100686.31;5052746;28;20041;-75
2021/06/02 08:18:54;;;;;;;6.47;2.88;;;;;;;19.80;38.45;100692.88;5052903;28;20033;-76
2021/06/02 08:21:22;;;;;;;8.70;2.78;;;;;;;19.80;38.51;100692.88;5052394;28;20106;-74
2021/06/02 08:23:49;;;;;;;4.10;2.55;;;;;;;19.81;38.23;100691.88;5052544;28;20045;-71
2021/06/02 08:26:19;;;;;;;6.25;2.92;;;;;;;19.95;38.73;100694.16;5052380;28;20486;-73
2021/06/02 08:28:46;;;;;;;7.47;3.00;;;;;;;19.76;37.90;100691.44;5052575;28;20147;-69
2021/06/02 08:31:16;;;;;;;6.63;2.75;;;;;;;19.92;37.83;100694.44;5052091;28;20067;-74
2021/06/02 08:33:44;;;;;;;6.32;2.90;;;;;;;20.02;38.32;100689.91;5052995;28;20053;-74
2021/06/02 08:36:13;;;;;;;6.30;2.80;;;;;;;20.13;38.06;100694.31;5052356;28;20102;-71
2021/06/02 08:38:41;;;;;;;6.38;2.78;;;;;;;20.09;37.84;100700.16;5052412;28;20129;-67
2021/06/02 08:41:09;;;;;;;5.38;2.90;;;;;;;20.10;38.21;100693.75;5054180;28;20115;-67
2021/06/02 08:43:41;;;;;;;10.30;3.20;;;;;;;20.36;38.03;100694.84;5055949;28;20045;-69
2021/06/02 08:46:09;;;;;;;6.28;2.92;;;;;;;20.31;38.44;100691.72;5056679;28;20052;-69
2021/06/02 08:48:38;;;;;;;5.40;2.50;;;;;;;20.56;37.72;100688.47;5056038;28;20045;-67
2021/06/02 08:51:05;;;;;;;5.20;3.22;;;;;;;20.81;37.07;100699.66;5055920;28;20072;-70
2021/06/02 08:53:33;;;;;;;5.90;2.67;;;;;;;20.22;38.46;100689.88;5056726;28;20119;-70
2021/06/02 08:56:04;;;;;;;7.00;2.95;;;;;;;20.13;37.56;100696.16;5056414;28;20037;-69
2021/06/02 08:58:32;;;;;;;7.47;2.90;;;;;;;20.00;38.98;100694.59;5056330;28;20059;-68
2021/06/02 09:01:01;;;;;;;4.82;2.85;;;;;;;19.94;38.10;100695.16;5055832;28;20053;-68
2021/06/02 09:03:31;;;;;;;6.45;2.92;;;;;;;19.65;38.73;100688.84;5056075;28;20122;-70
2021/06/02 09:05:59;;;;;;;7.07;3.15;;;;;;;19.93;39.21;100698.00;5055768;28;20538;-70
2021/06/02 09:08:28;;;;;;;7.47;2.83;;;;;;;20.16;39.75;100688.59;5055771;28;20044;-70
2021/06/02 09:11:09;;;;;;;5.55;2.88;;;;;;;20.58;38.28;100693.72;5055645;28;20073;-71
2021/06/02 09:13:37;;;;;;;6.53;2.70;;;;;;;20.60;38.26;100688.16;5056065;28;20048;-71
2021/06/02 09:16:18;;;;;;;8.68;3.13;;;;;;;20.84;38.18;100688.50;5056266;28;20116;-70
2021/06/02 09:18:50;;;;;;;5.93;3.13;;;;;;;20.91;37.95;100683.34;5055909;28;20087;-76
2021/06/02 09:21:18;;;;;;;4.88;2.60;;;;;;;20.86;37.97;100676.53;5055752;28;20432;-73
2021/06/02 09:23:47;;;;;;;5.43;2.80;;;;;;;20.74;37.85;100677.69;5055840;28;20045;-76
2021/06/02 09:26:18;;;;;;;6.32;3.05;;;;;;;20.73;36.81;100678.69;5055699;28;20405;-72
2021/06/02 09:28:58;;;;;;;6.40;2.65;;;;;;;20.88;37.39;100670.09;5054289;28;20072;-75
2021/06/02 09:31:43;;;;;;;6.15;2.60;;;;;;;21.00;36.29;100679.75;5055509;28;20048;-73
2021/06/02 09:34:16;;;;;;;7.10;2.90;;;;;;;20.90;36.83;100666.22;5055517;28;20106;-70
2021/06/02 09:36:47;;;;;;;6.28;3.05;;;;;;;20.99;35.33;100680.75;5055173;28;20049;-70
2021/06/02 09:39:16;;;;;;;5.35;2.50;;;;;;;21.07;35.04;100679.00;5055514;28;20041;-69
2021/06/02 09:41:48;;;;;;;5.22;2.50;;;;;;;21.17;34.68;100676.25;5055028;28;20064;-71
2021/06/02 09:44:18;;;;;;;5.68;2.67;;;;;;;21.26;35.14;100677.22;5055402;28;20052;-69
2021/06/02 09:47:05;;;;;;;7.68;2.78;;;;;;;21.42;34.09;100674.69;5055400;28;20553;-70
2021/06/02 09:49:46;;;;;;;4.32;2.22;;;;;;;21.45;33.83;100665.41;5055196;28;20065;-70
2021/06/02 09:52:15;;;;;;;8.55;3.15;;;;;;;21.63;33.74;100664.44;5053759;28;20048;-75
2021/06/02 09:54:44;;;;;;;6.00;2.58;;;;;;;21.38;33.26;100666.03;5054104;28;20045;-71
2021/06/02 09:57:12;;;;;;;4.32;2.40;;;;;;;20.81;32.81;100667.97;5055487;28;20433;-72
2021/06/02 09:59:56;;;;;;;5.50;2.47;;;;;;;20.43;31.96;100666.22;5055163;28;20041;-72
2021/06/02 10:02:26;;;;;;;5.25;2.38;;;;;;;20.49;33.09;100662.94;5054808;28;20069;-72
2021/06/02 10:05:01;;;;;;;6.25;2.70;;;;;;;20.54;33.93;100655.22;5055190;28;20049;-70
2021/06/02 10:07:32;;;;;;;6.20;2.67;;;;;;;20.65;32.93;100659.59;5057793;28;20059;-69
2021/06/02 10:10:12;;;;;;;6.07;2.65;;;;;;;20.36;34.00;100659.63;5057488;28;20052;-70
2021/06/02 10:12:40;;;;;;;4.70;2.50;;;;;;;20.51;34.12;100650.09;5054702;28;20041;-68
2021/06/02 10:15:08;;;;;;;4.15;2.20;;;;;;;20.55;31.12;100654.19;5054915;28;20444;-70
2021/06/02 10:17:39;;;;;;;4.95;2.60;;;;;;;20.46;31.16;100655.09;5055004;28;20099;-72
2021/06/02 10:20:09;;;;;;;5.18;2.60;;;;;;;20.39;31.60;100651.22;5054233;28;20157;-69
2021/06/02 10:22:39;;;;;;;5.70;2.55;;;;;;;20.48;33.08;100649.53;5053644;28;20106;-75
2021/06/02 10:25:09;;;;;;;5.68;2.63;;;;;;;20.42;32.38;100644.66;5054621;28;20132;-75
2021/06/02 10:27:40;;;;;;;6.05;2.35;;;;;;;20.04;33.04;100649.13;5054479;28;20102;-74
2021/06/02 10:30:09;;;;;;;4.20;2.38;;;;;;;20.08;32.44;100649.72;5054564;28;20539;-72
2021/06/02 10:32:38;;;;;;;6.43;2.15;;;;;;;20.19;32.04;100652.25;5054329;28;20052;-67
2021/06/02 10:35:07;;;;;;;4.65;2.03;;;;;;;20.28;32.82;100651.41;5054519;28;20049;-71
2021/06/02 10:37:40;;;;;;;6.18;2.40;;;;;;;20.37;32.78;100650.53;5053879;28;20379;-73
2021/06/02 10:40:12;;;;;;;6.45;2.50;;;;;;;20.60;32.13;100647.50;5054712;28;20560;-70
2021/06/02 10:42:48;;;;;;;4.95;2.53;;;;;;;20.44;30.61;100653.53;5054334;28;20048;-72
2021/06/02 10:45:21;;;;;;;6.18;2.50;;;;;;;20.20;31.23;100648.56;5054180;28;20551;-71
2021/06/02 10:47:57;;;;;;;4.20;2.10;;;;;;;20.27;33.62;100650.56;5054558;28;20056;-72
2021/06/02 10:50:32;;;;;;;5.20;2.28;;;;;;;20.33;32.79;100649.09;5054130;28;20072;-75
2021/06/02 10:53:02;;;;;;;5.03;2.50;;;;;;;20.39;35.12;100648.53;5067558;28;20057;-73
2021/06/02 10:55:42;;;;;;;4.88;2.50;;;;;;;20.84;34.39;100645.13;5063591;28;20080;-67
2021/06/02 10:58:21;;;;;;;4.13;2.58;;;;;;;20.84;34.25;100645.13;5055702;28;20112;-71
2021/06/02 11:00:50;;;;;;;4.95;2.60;;;;;;;20.99;33.10;100643.63;5054499;28;20052;-70
2021/06/02 11:03:22;;;;;;;4.88;2.50;;;;;;;20.87;33.13;100644.84;5053869;28;20060;-72
2021/06/02 11:05:57;;;;;;;5.55;2.65;;;;;;;21.01;33.13;100641.63;5054124;28;20037;-72
2021/06/02 11:09:06;;;;;;;4.82;2.28;;;;;;;20.83;32.00;100643.41;5053060;28;20507;-72
2021/06/02 11:11:36;;;;;;;4.00;2.38;;;;;;;20.91;32.47;100642.69;5053692;28;20033;-72
2021/06/02 11:14:23;;;;;;;5.10;2.53;;;;;;;20.76;32.04;100645.88;5053986;28;20041;-71
2021/06/02 11:16:55;;;;;;;7.35;2.65;;;;;;;20.85;32.63;100646.84;5053574;28;20410;-71
2021/06/02 11:19:27;;;;;;;4.00;2.30;;;;;;;21.05;32.41;100637.63;5053905;28;20053;-73
2021/06/02 11:22:01;;;;;;;5.97;2.70;;;;;;;21.09;33.66;100630.88;5053734;28;20547;-73
2021/06/02 11:24:42;;;;;;;7.68;2.90;;;;;;;21.36;33.41;100623.78;5053696;28;20122;-71
2021/06/02 11:27:33;;;;;;;4.90;2.30;;;;;;;21.51;32.11;100633.06;5053583;28;20048;-70
2021/06/02 11:30:23;;;;;;;4.90;2.50;;;;;;;21.62;32.10;100635.59;5053501;28;20045;-72
2021/06/02 11:33:10;;;;;;;7.68;2.40;;;;;;;21.52;31.73;100640.25;5052110;28;20049;-70
2021/06/02 11:36:04;;;;;;;5.88;2.53;;;;;;;21.14;31.54;100639.44;5052688;28;20064;-68
2021/06/02 11:38:33;;;;;;;6.18;2.80;;;;;;;21.21;32.45;100641.53;5053117;28;20076;-72
2021/06/02 11:41:01;;;;;;;4.68;2.42;;;;;;;21.44;31.89;100632.00;5052555;28;20161;-71
2021/06/02 11:43:29;;;;;;;6.45;2.58;;;;;;;21.50;31.35;100630.53;5053225;28;20041;-71
2021/06/02 11:46:00;;;;;;;6.28;2.70;;;;;;;21.29;31.56;100634.38;5032851;28;20058;-72
2021/06/02 11:48:33;;;;;;;6.13;2.83;;;;;;;21.19;31.29;100638.13;5033193;28;20048;-73
2021/06/02 11:51:07;;;;;;;6.80;2.70;;;;;;;21.17;30.14;100634.72;5033112;28;20056;-70
2021/06/02 11:53:51;;;;;;;7.30;2.55;;;;;;;21.16;31.78;100636.56;5033271;28;20037;-70
2021/06/02 11:56:19;;;;;;;5.43;2.72;;;;;;;21.00;30.98;100633.66;5033063;28;20124;-71
2021/06/02 11:58:49;;;;;;;7.13;2.92;;;;;;;20.99;31.50;100627.38;5033180;28;20041;-71
2021/06/02 12:01:24;;;;;;;4.65;2.60;;;;;;;21.25;32.14;100618.53;5033095;28;20048;-73
2021/06/02 12:03:56;;;;;;;6.18;2.65;;;;;;;21.46;30.54;100632.69;5033257;28;20111;-72
2021/06/02 12:06:34;;;;;;;6.88;2.60;;;;;;;21.47;30.81;100622.69;5034926;28;20050;-70
2021/06/02 12:09:09;;;;;;;5.60;2.88;;;;;;;21.71;31.07;100618.38;5053044;28;20508;-70
2021/06/02 12:11:38;;;;;;;5.28;2.40;;;;;;;21.81;30.75;100622.84;5052635;28;20029;-71